sensor_id;sensor_type;location;lat;lon;timestamp;temperature;humidity
74792;SHT30;63319;46.046;17.802;2023-04-24T00:00:46;24.38;38.86
74792;SHT30;63319;46.046;17.802;2023-04-24T00:03:49;24.37;38.87
74792;SHT30;63319;46.046;17.802;2023-04-24T00:06:52;24.37;38.86
74792;SHT30;63319;46.046;17.802;2023-04-24T00:10:00;24.34;39.00
74792;SHT30;63319;46.046;17.802;2023-04-24T00:13:03;24.35;38.98
74792;SHT30;63319;46.046;17.802;2023-04-24T00:16:05;24.34;38.94
74792;SHT30;63319;46.046;17.802;2023-04-24T00:19:09;24.35;39.01
74792;SHT30;63319;46.046;17.802;2023-04-24T00:22:12;24.34;38.88
74792;SHT30;63319;46.046;17.802;2023-04-24T00:25:15;24.34;39.01
74792;SHT30;63319;46.046;17.802;2023-04-24T00:28:19;24.34;38.95
74792;SHT30;63319;46.046;17.802;2023-04-24T00:31:22;24.31;38.97
74792;SHT30;63319;46.046;17.802;2023-04-24T00:34:25;24.31;38.97
74792;SHT30;63319;46.046;17.802;2023-04-24T00:37:28;24.30;38.98
74792;SHT30;63319;46.046;17.802;2023-04-24T00:40:31;24.33;39.07
74792;SHT30;63319;46.046;17.802;2023-04-24T00:43:34;24.30;39.04
74792;SHT30;63319;46.046;17.802;2023-04-24T00:46:37;24.30;38.95
74792;SHT30;63319;46.046;17.802;2023-04-24T00:49:40;24.30;38.98
74792;SHT30;63319;46.046;17.802;2023-04-24T00:52:44;24.30;39.09
74792;SHT30;63319;46.046;17.802;2023-04-24T00:55:56;24.27;39.03
74792;SHT30;63319;46.046;17.802;2023-04-24T00:58:59;24.31;38.99
74792;SHT30;63319;46.046;17.802;2023-04-24T01:02:02;24.28;39.04
74792;SHT30;63319;46.046;17.802;2023-04-24T01:05:11;24.28;39.07
74792;SHT30;63319;46.046;17.802;2023-04-24T01:08:14;24.30;39.14
74792;SHT30;63319;46.046;17.802;2023-04-24T01:11:17;24.28;39.17
74792;SHT30;63319;46.046;17.802;2023-04-24T01:14:20;24.28;39.19
74792;SHT30;63319;46.046;17.802;2023-04-24T01:17:24;24.27;39.03
74792;SHT30;63319;46.046;17.802;2023-04-24T01:20:29;24.27;39.10
74792;SHT30;63319;46.046;17.802;2023-04-24T01:23:36;24.24;39.22
74792;SHT30;63319;46.046;17.802;2023-04-24T01:26:39;24.25;39.18
74792;SHT30;63319;46.046;17.802;2023-04-24T01:29:42;24.25;39.25
74792;SHT30;63319;46.046;17.802;2023-04-24T01:32:45;24.23;39.09
74792;SHT30;63319;46.046;17.802;2023-04-24T01:35:49;24.24;38.99
74792;SHT30;63319;46.046;17.802;2023-04-24T01:38:52;24.23;39.19
74792;SHT30;63319;46.046;17.802;2023-04-24T01:41:56;24.21;39.09
74792;SHT30;63319;46.046;17.802;2023-04-24T01:44:59;24.21;39.19
74792;SHT30;63319;46.046;17.802;2023-04-24T01:48:05;24.18;39.17
74792;SHT30;63319;46.046;17.802;2023-04-24T01:51:08;24.23;39.26
74792;SHT30;63319;46.046;17.802;2023-04-24T01:54:12;24.21;39.21
74792;SHT30;63319;46.046;17.802;2023-04-24T01:57:16;24.20;39.32
74792;SHT30;63319;46.046;17.802;2023-04-24T02:00:19;24.18;39.26
74792;SHT30;63319;46.046;17.802;2023-04-24T02:03:22;24.18;39.32
74792;SHT30;63319;46.046;17.802;2023-04-24T02:06:25;24.20;39.06
74792;SHT30;63319;46.046;17.802;2023-04-24T02:09:28;24.20;39.29
74792;SHT30;63319;46.046;17.802;2023-04-24T02:12:31;24.17;39.21
74792;SHT30;63319;46.046;17.802;2023-04-24T02:15:33;24.18;39.28
74792;SHT30;63319;46.046;17.802;2023-04-24T02:18:38;24.18;39.39
74792;SHT30;63319;46.046;17.802;2023-04-24T02:21:41;24.17;39.37
74792;SHT30;63319;46.046;17.802;2023-04-24T02:24:46;24.17;39.40
74792;SHT30;63319;46.046;17.802;2023-04-24T02:27:50;24.16;39.38
74792;SHT30;63319;46.046;17.802;2023-04-24T02:30:53;24.16;39.39
74792;SHT30;63319;46.046;17.802;2023-04-24T02:33:57;24.16;39.33
74792;SHT30;63319;46.046;17.802;2023-04-24T02:36:59;24.14;39.34
74792;SHT30;63319;46.046;17.802;2023-04-24T02:40:03;24.16;39.43
74792;SHT30;63319;46.046;17.802;2023-04-24T02:43:07;24.16;39.47
74792;SHT30;63319;46.046;17.802;2023-04-24T02:46:10;24.14;39.31
74792;SHT30;63319;46.046;17.802;2023-04-24T02:49:13;24.13;39.30
74792;SHT30;63319;46.046;17.802;2023-04-24T02:52:16;24.16;39.41
74792;SHT30;63319;46.046;17.802;2023-04-24T02:55:19;24.12;39.29
74792;SHT30;63319;46.046;17.802;2023-04-24T02:58:22;24.12;39.37
74792;SHT30;63319;46.046;17.802;2023-04-24T03:01:25;24.13;39.33
74792;SHT30;63319;46.046;17.802;2023-04-24T03:04:28;24.13;39.35
74792;SHT30;63319;46.046;17.802;2023-04-24T03:07:31;24.10;39.23
74792;SHT30;63319;46.046;17.802;2023-04-24T03:10:34;24.10;39.32
74792;SHT30;63319;46.046;17.802;2023-04-24T03:13:37;24.10;39.46
74792;SHT30;63319;46.046;17.802;2023-04-24T03:16:40;24.07;39.32
74792;SHT30;63319;46.046;17.802;2023-04-24T03:19:43;24.09;39.40
74792;SHT30;63319;46.046;17.802;2023-04-24T03:22:47;24.10;39.35
74792;SHT30;63319;46.046;17.802;2023-04-24T03:25:51;24.07;39.30
74792;SHT30;63319;46.046;17.802;2023-04-24T03:28:55;24.09;39.24
74792;SHT30;63319;46.046;17.802;2023-04-24T03:31:58;24.04;39.32
74792;SHT30;63319;46.046;17.802;2023-04-24T03:35:02;24.04;39.11
74792;SHT30;63319;46.046;17.802;2023-04-24T03:38:06;24.03;39.31
74792;SHT30;63319;46.046;17.802;2023-04-24T03:41:29;24.03;39.18
74792;SHT30;63319;46.046;17.802;2023-04-24T03:44:49;24.03;39.05
74792;SHT30;63319;46.046;17.802;2023-04-24T03:47:55;24.04;39.15
74792;SHT30;63319;46.046;17.802;2023-04-24T03:50:57;24.03;39.29
74792;SHT30;63319;46.046;17.802;2023-04-24T03:54:00;24.03;39.67
74792;SHT30;63319;46.046;17.802;2023-04-24T03:57:05;24.03;39.65
74792;SHT30;63319;46.046;17.802;2023-04-24T04:00:11;24.06;39.65
74792;SHT30;63319;46.046;17.802;2023-04-24T04:03:21;24.06;39.69
74792;SHT30;63319;46.046;17.802;2023-04-24T04:06:25;24.06;39.71
74792;SHT30;63319;46.046;17.802;2023-04-24T04:09:49;24.09;39.71
74792;SHT30;63319;46.046;17.802;2023-04-24T04:12:52;24.10;39.75
74792;SHT30;63319;46.046;17.802;2023-04-24T04:15:54;24.12;39.67
74792;SHT30;63319;46.046;17.802;2023-04-24T04:18:58;24.12;39.71
74792;SHT30;63319;46.046;17.802;2023-04-24T04:22:02;24.12;39.73
74792;SHT30;63319;46.046;17.802;2023-04-24T04:25:14;24.13;39.73
74792;SHT30;63319;46.046;17.802;2023-04-24T04:28:17;24.13;39.74
74792;SHT30;63319;46.046;17.802;2023-04-24T04:31:23;24.13;39.77
74792;SHT30;63319;46.046;17.802;2023-04-24T04:34:27;24.13;39.67
74792;SHT30;63319;46.046;17.802;2023-04-24T04:38:08;24.13;39.75
74792;SHT30;63319;46.046;17.802;2023-04-24T04:41:17;24.14;39.60
74792;SHT30;63319;46.046;17.802;2023-04-24T04:44:22;24.16;39.73
74792;SHT30;63319;46.046;17.802;2023-04-24T04:47:26;24.18;39.70
74792;SHT30;63319;46.046;17.802;2023-04-24T04:50:37;24.17;39.75
74792;SHT30;63319;46.046;17.802;2023-04-24T04:53:43;24.20;39.78
74792;SHT30;63319;46.046;17.802;2023-04-24T04:56:46;24.20;39.68
74792;SHT30;63319;46.046;17.802;2023-04-24T04:59:50;24.18;39.73
74792;SHT30;63319;46.046;17.802;2023-04-24T05:03:05;24.20;39.79
74792;SHT30;63319;46.046;17.802;2023-04-24T05:06:25;24.20;39.73
74792;SHT30;63319;46.046;17.802;2023-04-24T05:09:29;24.20;39.23
74792;SHT30;63319;46.046;17.802;2023-04-24T05:12:37;24.20;39.41
74792;SHT30;63319;46.046;17.802;2023-04-24T05:15:40;24.23;39.25
74792;SHT30;63319;46.046;17.802;2023-04-24T05:18:43;24.24;39.41
74792;SHT30;63319;46.046;17.802;2023-04-24T05:21:49;24.25;38.95
74792;SHT30;63319;46.046;17.802;2023-04-24T05:24:52;24.30;39.27
74792;SHT30;63319;46.046;17.802;2023-04-24T05:28:14;24.33;39.19
74792;SHT30;63319;46.046;17.802;2023-04-24T05:31:22;24.37;38.99
74792;SHT30;63319;46.046;17.802;2023-04-24T05:34:24;24.41;38.93
74792;SHT30;63319;46.046;17.802;2023-04-24T05:37:30;24.40;38.93
74792;SHT30;63319;46.046;17.802;2023-04-24T05:40:34;24.43;38.99
74792;SHT30;63319;46.046;17.802;2023-04-24T05:43:36;24.43;38.83
74792;SHT30;63319;46.046;17.802;2023-04-24T05:46:39;24.38;39.22
74792;SHT30;63319;46.046;17.802;2023-04-24T05:49:44;24.37;39.68
74792;SHT30;63319;46.046;17.802;2023-04-24T05:52:47;24.37;39.85
74792;SHT30;63319;46.046;17.802;2023-04-24T05:56:01;24.35;40.53
74792;SHT30;63319;46.046;17.802;2023-04-24T05:59:05;24.34;40.46
74792;SHT30;63319;46.046;17.802;2023-04-24T06:02:08;24.35;40.19
74792;SHT30;63319;46.046;17.802;2023-04-24T06:05:11;24.35;40.20
74792;SHT30;63319;46.046;17.802;2023-04-24T06:08:14;24.37;40.22
74792;SHT30;63319;46.046;17.802;2023-04-24T06:11:18;24.38;40.21
74792;SHT30;63319;46.046;17.802;2023-04-24T06:14:22;24.40;40.12
74792;SHT30;63319;46.046;17.802;2023-04-24T06:17:43;24.44;40.18
74792;SHT30;63319;46.046;17.802;2023-04-24T06:20:49;24.43;39.83
74792;SHT30;63319;46.046;17.802;2023-04-24T06:23:52;24.45;40.40
74792;SHT30;63319;46.046;17.802;2023-04-24T06:26:55;24.47;40.34
74792;SHT30;63319;46.046;17.802;2023-04-24T06:30:02;24.48;40.36
74792;SHT30;63319;46.046;17.802;2023-04-24T06:33:05;24.51;40.58
74792;SHT30;63319;46.046;17.802;2023-04-24T06:36:22;24.57;40.57
74792;SHT30;63319;46.046;17.802;2023-04-24T06:39:33;24.58;40.46
74792;SHT30;63319;46.046;17.802;2023-04-24T06:42:36;24.64;40.68
74792;SHT30;63319;46.046;17.802;2023-04-24T06:45:41;24.62;40.63
74792;SHT30;63319;46.046;17.802;2023-04-24T06:48:45;24.69;40.67
74792;SHT30;63319;46.046;17.802;2023-04-24T06:51:48;24.68;40.74
74792;SHT30;63319;46.046;17.802;2023-04-24T06:54:51;24.68;40.87
74792;SHT30;63319;46.046;17.802;2023-04-24T06:57:54;24.69;40.89
74792;SHT30;63319;46.046;17.802;2023-04-24T07:00:57;24.68;40.86
74792;SHT30;63319;46.046;17.802;2023-04-24T07:04:00;24.69;40.77
74792;SHT30;63319;46.046;17.802;2023-04-24T07:07:04;24.69;40.82
74792;SHT30;63319;46.046;17.802;2023-04-24T07:10:08;24.71;41.12
74792;SHT30;63319;46.046;17.802;2023-04-24T07:13:11;24.73;41.22
74792;SHT30;63319;46.046;17.802;2023-04-24T07:16:15;24.76;41.17
74792;SHT30;63319;46.046;17.802;2023-04-24T07:19:18;24.75;41.27
74792;SHT30;63319;46.046;17.802;2023-04-24T07:22:20;24.79;41.08
74792;SHT30;63319;46.046;17.802;2023-04-24T07:25:23;24.85;40.89
74792;SHT30;63319;46.046;17.802;2023-04-24T07:28:26;24.85;40.85
74792;SHT30;63319;46.046;17.802;2023-04-24T07:31:30;24.86;40.78
74792;SHT30;63319;46.046;17.802;2023-04-24T07:34:33;24.89;40.88
74792;SHT30;63319;46.046;17.802;2023-04-24T07:37:37;24.89;40.61
74792;SHT30;63319;46.046;17.802;2023-04-24T07:40:39;24.95;40.80
74792;SHT30;63319;46.046;17.802;2023-04-24T07:43:44;24.93;40.16
74792;SHT30;63319;46.046;17.802;2023-04-24T07:46:47;24.92;39.46
74792;SHT30;63319;46.046;17.802;2023-04-24T07:49:50;24.91;39.12
74792;SHT30;63319;46.046;17.802;2023-04-24T07:52:53;24.88;39.60
74792;SHT30;63319;46.046;17.802;2023-04-24T07:55:56;24.88;40.69
74792;SHT30;63319;46.046;17.802;2023-04-24T07:59:02;24.91;40.94
74792;SHT30;63319;46.046;17.802;2023-04-24T08:02:05;24.95;40.89
74792;SHT30;63319;46.046;17.802;2023-04-24T08:05:08;24.98;41.00
74792;SHT30;63319;46.046;17.802;2023-04-24T08:08:22;24.98;40.99
74792;SHT30;63319;46.046;17.802;2023-04-24T08:11:25;24.99;41.11
74792;SHT30;63319;46.046;17.802;2023-04-24T08:14:28;25.02;41.10
74792;SHT30;63319;46.046;17.802;2023-04-24T08:17:31;25.02;40.87
74792;SHT30;63319;46.046;17.802;2023-04-24T08:20:35;25.05;41.04
74792;SHT30;63319;46.046;17.802;2023-04-24T08:23:40;25.10;41.08
74792;SHT30;63319;46.046;17.802;2023-04-24T08:26:42;25.08;41.07
74792;SHT30;63319;46.046;17.802;2023-04-24T08:29:45;25.12;41.17
74792;SHT30;63319;46.046;17.802;2023-04-24T08:32:48;25.13;41.15
74792;SHT30;63319;46.046;17.802;2023-04-24T08:35:51;25.15;41.26
74792;SHT30;63319;46.046;17.802;2023-04-24T08:38:55;25.16;41.20
74792;SHT30;63319;46.046;17.802;2023-04-24T08:41:59;25.15;40.06
74792;SHT30;63319;46.046;17.802;2023-04-24T08:45:08;25.16;41.71
74792;SHT30;63319;46.046;17.802;2023-04-24T08:48:12;25.15;40.65
74792;SHT30;63319;46.046;17.802;2023-04-24T08:51:31;25.16;42.08
74792;SHT30;63319;46.046;17.802;2023-04-24T08:54:36;25.16;42.43
74792;SHT30;63319;46.046;17.802;2023-04-24T08:57:39;25.18;42.68
74792;SHT30;63319;46.046;17.802;2023-04-24T09:00:43;25.16;43.20
74792;SHT30;63319;46.046;17.802;2023-04-24T09:03:49;25.16;43.04
74792;SHT30;63319;46.046;17.802;2023-04-24T09:06:57;25.19;42.95
74792;SHT30;63319;46.046;17.802;2023-04-24T09:10:01;25.22;43.29
74792;SHT30;63319;46.046;17.802;2023-04-24T09:13:04;25.23;43.35
74792;SHT30;63319;46.046;17.802;2023-04-24T09:16:07;25.26;43.34
74792;SHT30;63319;46.046;17.802;2023-04-24T09:19:10;25.33;43.31
74792;SHT30;63319;46.046;17.802;2023-04-24T09:22:14;25.37;43.21
74792;SHT30;63319;46.046;17.802;2023-04-24T09:25:18;25.47;43.20
74792;SHT30;63319;46.046;17.802;2023-04-24T09:28:26;25.51;43.20
74792;SHT30;63319;46.046;17.802;2023-04-24T09:31:29;25.51;43.24
74792;SHT30;63319;46.046;17.802;2023-04-24T09:34:32;25.51;43.27
74792;SHT30;63319;46.046;17.802;2023-04-24T09:37:40;25.54;43.11
74792;SHT30;63319;46.046;17.802;2023-04-24T09:40:44;25.51;43.44
74792;SHT30;63319;46.046;17.802;2023-04-24T09:43:47;25.53;43.61
74792;SHT30;63319;46.046;17.802;2023-04-24T09:46:54;25.53;43.77
74792;SHT30;63319;46.046;17.802;2023-04-24T09:50:09;25.46;43.82
74792;SHT30;63319;46.046;17.802;2023-04-24T09:53:13;25.43;44.04
74792;SHT30;63319;46.046;17.802;2023-04-24T09:56:16;25.44;44.07
74792;SHT30;63319;46.046;17.802;2023-04-24T09:59:20;25.40;43.80
74792;SHT30;63319;46.046;17.802;2023-04-24T10:02:23;25.39;44.14
74792;SHT30;63319;46.046;17.802;2023-04-24T10:05:36;25.37;44.23
74792;SHT30;63319;46.046;17.802;2023-04-24T10:08:39;25.39;44.13
74792;SHT30;63319;46.046;17.802;2023-04-24T10:11:45;25.40;44.21
74792;SHT30;63319;46.046;17.802;2023-04-24T10:14:49;25.39;43.98
74792;SHT30;63319;46.046;17.802;2023-04-24T10:17:52;25.37;44.11
74792;SHT30;63319;46.046;17.802;2023-04-24T10:20:56;25.36;43.94
74792;SHT30;63319;46.046;17.802;2023-04-24T10:24:00;25.36;43.76
74792;SHT30;63319;46.046;17.802;2023-04-24T10:27:06;25.36;43.93
74792;SHT30;63319;46.046;17.802;2023-04-24T10:30:12;25.36;43.86
74792;SHT30;63319;46.046;17.802;2023-04-24T10:33:15;25.39;43.85
74792;SHT30;63319;46.046;17.802;2023-04-24T10:36:22;25.40;42.98
74792;SHT30;63319;46.046;17.802;2023-04-24T10:39:26;25.39;43.40
74792;SHT30;63319;46.046;17.802;2023-04-24T10:42:30;25.39;43.35
74792;SHT30;63319;46.046;17.802;2023-04-24T10:45:32;25.43;43.03
74792;SHT30;63319;46.046;17.802;2023-04-24T10:48:36;25.46;43.25
74792;SHT30;63319;46.046;17.802;2023-04-24T10:51:51;25.56;43.23
74792;SHT30;63319;46.046;17.802;2023-04-24T10:55:01;25.61;42.89
74792;SHT30;63319;46.046;17.802;2023-04-24T10:58:04;25.64;42.95
74792;SHT30;63319;46.046;17.802;2023-04-24T11:01:07;25.70;42.91
74792;SHT30;63319;46.046;17.802;2023-04-24T11:04:13;25.70;42.89
74792;SHT30;63319;46.046;17.802;2023-04-24T11:07:16;25.74;42.79
74792;SHT30;63319;46.046;17.802;2023-04-24T11:10:28;25.85;42.62
74792;SHT30;63319;46.046;17.802;2023-04-24T11:16:59;25.95;42.44
74792;SHT30;63319;46.046;17.802;2023-04-24T11:20:08;25.98;42.28
74792;SHT30;63319;46.046;17.802;2023-04-24T11:23:36;26.04;42.27
74792;SHT30;63319;46.046;17.802;2023-04-24T11:26:39;26.04;42.30
74792;SHT30;63319;46.046;17.802;2023-04-24T11:33:03;26.02;42.90
74792;SHT30;63319;46.046;17.802;2023-04-24T11:36:08;26.02;42.98
74792;SHT30;63319;46.046;17.802;2023-04-24T11:39:12;26.02;43.04
74792;SHT30;63319;46.046;17.802;2023-04-24T11:42:15;25.99;43.07
74792;SHT30;63319;46.046;17.802;2023-04-24T11:45:25;25.95;43.06
74792;SHT30;63319;46.046;17.802;2023-04-24T11:48:34;25.95;42.80
74792;SHT30;63319;46.046;17.802;2023-04-24T11:51:40;25.94;43.08
74792;SHT30;63319;46.046;17.802;2023-04-24T11:54:56;25.88;42.71
74792;SHT30;63319;46.046;17.802;2023-04-24T11:58:00;25.84;43.04
74792;SHT30;63319;46.046;17.802;2023-04-24T12:01:04;25.84;43.21
74792;SHT30;63319;46.046;17.802;2023-04-24T12:04:08;25.80;43.06
74792;SHT30;63319;46.046;17.802;2023-04-24T12:07:20;25.78;43.31
74792;SHT30;63319;46.046;17.802;2023-04-24T12:10:32;25.74;43.47
74792;SHT30;63319;46.046;17.802;2023-04-24T12:13:40;25.68;43.98
74792;SHT30;63319;46.046;17.802;2023-04-24T12:16:52;25.67;43.80
74792;SHT30;63319;46.046;17.802;2023-04-24T12:19:59;25.64;44.33
74792;SHT30;63319;46.046;17.802;2023-04-24T12:23:02;25.63;43.50
74792;SHT30;63319;46.046;17.802;2023-04-24T12:26:05;25.60;43.44
74792;SHT30;63319;46.046;17.802;2023-04-24T12:29:08;25.57;43.16
74792;SHT30;63319;46.046;17.802;2023-04-24T12:32:18;25.56;42.40
74792;SHT30;63319;46.046;17.802;2023-04-24T12:35:26;25.54;43.17
74792;SHT30;63319;46.046;17.802;2023-04-24T12:38:30;25.54;43.17
74792;SHT30;63319;46.046;17.802;2023-04-24T12:41:33;25.60;42.25
74792;SHT30;63319;46.046;17.802;2023-04-24T12:44:36;25.61;42.08
74792;SHT30;63319;46.046;17.802;2023-04-24T12:47:40;25.64;42.48
74792;SHT30;63319;46.046;17.802;2023-04-24T12:50:44;25.67;42.52
74792;SHT30;63319;46.046;17.802;2023-04-24T12:53:49;25.66;42.04
74792;SHT30;63319;46.046;17.802;2023-04-24T12:56:52;25.66;42.14
74792;SHT30;63319;46.046;17.802;2023-04-24T12:59:56;25.64;41.72
74792;SHT30;63319;46.046;17.802;2023-04-24T13:02:59;25.60;41.89
74792;SHT30;63319;46.046;17.802;2023-04-24T13:06:03;25.66;42.08
74792;SHT30;63319;46.046;17.802;2023-04-24T13:09:06;25.63;42.18
74792;SHT30;63319;46.046;17.802;2023-04-24T13:12:10;25.57;42.48
74792;SHT30;63319;46.046;17.802;2023-04-24T13:15:13;25.57;42.41
74792;SHT30;63319;46.046;17.802;2023-04-24T13:18:16;25.46;49.56
74792;SHT30;63319;46.046;17.802;2023-04-24T13:21:19;25.27;44.75
74792;SHT30;63319;46.046;17.802;2023-04-24T13:24:22;25.22;43.91
74792;SHT30;63319;46.046;17.802;2023-04-24T13:27:28;25.22;45.85
74792;SHT30;63319;46.046;17.802;2023-04-24T13:30:31;25.20;45.48
74792;SHT30;63319;46.046;17.802;2023-04-24T13:33:34;25.18;46.71
74792;SHT30;63319;46.046;17.802;2023-04-24T13:36:37;25.16;46.86
74792;SHT30;63319;46.046;17.802;2023-04-24T13:39:40;25.15;47.89
74792;SHT30;63319;46.046;17.802;2023-04-24T13:42:43;25.18;48.04
74792;SHT30;63319;46.046;17.802;2023-04-24T13:45:46;25.18;47.66
74792;SHT30;63319;46.046;17.802;2023-04-24T13:48:51;25.13;47.40
74792;SHT30;63319;46.046;17.802;2023-04-24T13:51:55;25.16;48.31
74792;SHT30;63319;46.046;17.802;2023-04-24T13:54:58;25.16;48.62
74792;SHT30;63319;46.046;17.802;2023-04-24T13:58:02;25.13;46.89
74792;SHT30;63319;46.046;17.802;2023-04-24T14:01:05;25.13;46.85
74792;SHT30;63319;46.046;17.802;2023-04-24T14:04:08;25.10;47.34
74792;SHT30;63319;46.046;17.802;2023-04-24T14:07:11;25.09;47.24
74792;SHT30;63319;46.046;17.802;2023-04-24T14:10:13;25.12;47.41
74792;SHT30;63319;46.046;17.802;2023-04-24T14:13:17;25.10;47.37
74792;SHT30;63319;46.046;17.802;2023-04-24T14:16:19;25.10;47.33
74792;SHT30;63319;46.046;17.802;2023-04-24T14:19:22;25.09;47.67
74792;SHT30;63319;46.046;17.802;2023-04-24T14:22:26;25.10;46.74
74792;SHT30;63319;46.046;17.802;2023-04-24T14:25:29;25.09;47.16
74792;SHT30;63319;46.046;17.802;2023-04-24T14:28:32;25.10;46.97
74792;SHT30;63319;46.046;17.802;2023-04-24T14:31:35;25.12;46.86
74792;SHT30;63319;46.046;17.802;2023-04-24T14:34:38;25.09;46.75
74792;SHT30;63319;46.046;17.802;2023-04-24T14:37:41;25.10;46.86
74792;SHT30;63319;46.046;17.802;2023-04-24T14:40:44;25.13;46.19
74792;SHT30;63319;46.046;17.802;2023-04-24T14:44:07;25.09;45.75
74792;SHT30;63319;46.046;17.802;2023-04-24T14:47:09;25.09;46.04
74792;SHT30;63319;46.046;17.802;2023-04-24T14:50:22;25.05;45.89
74792;SHT30;63319;46.046;17.802;2023-04-24T14:53:33;25.05;45.80
74792;SHT30;63319;46.046;17.802;2023-04-24T14:56:36;25.02;45.29
74792;SHT30;63319;46.046;17.802;2023-04-24T14:59:39;25.00;46.29
74792;SHT30;63319;46.046;17.802;2023-04-24T15:02:42;24.99;45.22
74792;SHT30;63319;46.046;17.802;2023-04-24T15:05:47;24.98;45.56
74792;SHT30;63319;46.046;17.802;2023-04-24T15:08:50;24.96;45.39
74792;SHT30;63319;46.046;17.802;2023-04-24T15:11:53;24.98;45.94
74792;SHT30;63319;46.046;17.802;2023-04-24T15:14:57;24.96;45.63
74792;SHT30;63319;46.046;17.802;2023-04-24T15:18:04;24.93;45.78
74792;SHT30;63319;46.046;17.802;2023-04-24T15:21:08;24.91;46.43
74792;SHT30;63319;46.046;17.802;2023-04-24T15:24:14;24.92;46.08
74792;SHT30;63319;46.046;17.802;2023-04-24T15:27:17;24.92;45.85
74792;SHT30;63319;46.046;17.802;2023-04-24T15:30:20;24.89;46.14
74792;SHT30;63319;46.046;17.802;2023-04-24T15:33:23;24.89;46.29
74792;SHT30;63319;46.046;17.802;2023-04-24T15:36:28;24.85;45.67
74792;SHT30;63319;46.046;17.802;2023-04-24T15:39:31;24.83;45.81
74792;SHT30;63319;46.046;17.802;2023-04-24T15:42:34;24.83;45.93
74792;SHT30;63319;46.046;17.802;2023-04-24T15:45:37;24.82;46.01
74792;SHT30;63319;46.046;17.802;2023-04-24T15:48:41;24.81;46.44
74792;SHT30;63319;46.046;17.802;2023-04-24T15:51:44;24.79;46.38
74792;SHT30;63319;46.046;17.802;2023-04-24T15:54:48;24.78;46.35
74792;SHT30;63319;46.046;17.802;2023-04-24T15:57:55;24.78;46.24
74792;SHT30;63319;46.046;17.802;2023-04-24T16:01:02;24.78;46.43
74792;SHT30;63319;46.046;17.802;2023-04-24T16:04:05;24.75;46.39
74792;SHT30;63319;46.046;17.802;2023-04-24T16:07:09;24.73;46.29
74792;SHT30;63319;46.046;17.802;2023-04-24T16:10:11;24.71;46.40
74792;SHT30;63319;46.046;17.802;2023-04-24T16:13:14;24.75;46.51
74792;SHT30;63319;46.046;17.802;2023-04-24T16:16:20;24.73;46.56
74792;SHT30;63319;46.046;17.802;2023-04-24T16:19:23;24.71;46.32
74792;SHT30;63319;46.046;17.802;2023-04-24T16:22:26;24.71;46.31
74792;SHT30;63319;46.046;17.802;2023-04-24T16:25:29;24.69;46.33
74792;SHT30;63319;46.046;17.802;2023-04-24T16:28:32;24.71;46.33
74792;SHT30;63319;46.046;17.802;2023-04-24T16:31:35;24.67;46.34
74792;SHT30;63319;46.046;17.802;2023-04-24T16:34:38;24.65;46.29
74792;SHT30;63319;46.046;17.802;2023-04-24T16:37:41;24.67;46.43
74792;SHT30;63319;46.046;17.802;2023-04-24T16:40:44;24.65;46.19
74792;SHT30;63319;46.046;17.802;2023-04-24T16:43:47;24.65;46.07
74792;SHT30;63319;46.046;17.802;2023-04-24T16:46:49;24.64;46.44
74792;SHT30;63319;46.046;17.802;2023-04-24T16:49:53;24.61;46.21
74792;SHT30;63319;46.046;17.802;2023-04-24T16:52:56;24.64;46.41
74792;SHT30;63319;46.046;17.802;2023-04-24T16:55:59;24.61;46.22
74792;SHT30;63319;46.046;17.802;2023-04-24T16:59:02;24.61;46.27
74792;SHT30;63319;46.046;17.802;2023-04-24T17:02:06;24.61;46.42
74792;SHT30;63319;46.046;17.802;2023-04-24T17:05:09;24.60;46.25
74792;SHT30;63319;46.046;17.802;2023-04-24T17:08:13;24.58;46.18
74792;SHT30;63319;46.046;17.802;2023-04-24T17:11:16;24.58;46.40
74792;SHT30;63319;46.046;17.802;2023-04-24T17:14:19;24.58;46.33
74792;SHT30;63319;46.046;17.802;2023-04-24T17:17:22;24.55;46.18
74792;SHT30;63319;46.046;17.802;2023-04-24T17:20:27;24.57;46.31
74792;SHT30;63319;46.046;17.802;2023-04-24T17:23:33;24.57;46.29
74792;SHT30;63319;46.046;17.802;2023-04-24T17:26:36;24.54;46.19
74792;SHT30;63319;46.046;17.802;2023-04-24T17:29:57;24.55;46.35
74792;SHT30;63319;46.046;17.802;2023-04-24T17:33:25;24.54;46.40
74792;SHT30;63319;46.046;17.802;2023-04-24T17:36:38;24.55;46.19
74792;SHT30;63319;46.046;17.802;2023-04-24T17:39:42;24.52;46.40
74792;SHT30;63319;46.046;17.802;2023-04-24T17:42:46;24.54;46.32
74792;SHT30;63319;46.046;17.802;2023-04-24T17:45:53;24.52;46.31
74792;SHT30;63319;46.046;17.802;2023-04-24T17:48:58;24.51;46.23
74792;SHT30;63319;46.046;17.802;2023-04-24T17:52:12;24.51;46.21
74792;SHT30;63319;46.046;17.802;2023-04-24T17:55:16;24.51;46.40
74792;SHT30;63319;46.046;17.802;2023-04-24T17:58:19;24.51;46.36
74792;SHT30;63319;46.046;17.802;2023-04-24T18:01:23;24.51;46.39
74792;SHT30;63319;46.046;17.802;2023-04-24T18:04:26;24.48;46.45
74792;SHT30;63319;46.046;17.802;2023-04-24T18:07:29;24.48;46.31
74792;SHT30;63319;46.046;17.802;2023-04-24T18:10:33;24.48;46.29
74792;SHT30;63319;46.046;17.802;2023-04-24T18:13:39;24.44;46.22
74792;SHT30;63319;46.046;17.802;2023-04-24T18:16:45;24.44;46.27
74792;SHT30;63319;46.046;17.802;2023-04-24T18:19:49;24.47;46.50
74792;SHT30;63319;46.046;17.802;2023-04-24T18:22:53;24.47;46.36
74792;SHT30;63319;46.046;17.802;2023-04-24T18:25:56;24.45;46.48
74792;SHT30;63319;46.046;17.802;2023-04-24T18:29:00;24.45;46.43
74792;SHT30;63319;46.046;17.802;2023-04-24T18:32:05;24.44;46.47
74792;SHT30;63319;46.046;17.802;2023-04-24T18:35:09;24.45;46.47
74792;SHT30;63319;46.046;17.802;2023-04-24T18:38:13;24.44;46.33
74792;SHT30;63319;46.046;17.802;2023-04-24T18:41:17;24.44;46.39
74792;SHT30;63319;46.046;17.802;2023-04-24T18:44:23;24.44;46.43
74792;SHT30;63319;46.046;17.802;2023-04-24T18:47:28;24.44;46.50
74792;SHT30;63319;46.046;17.802;2023-04-24T18:50:31;24.44;46.34
74792;SHT30;63319;46.046;17.802;2023-04-24T18:53:35;24.43;46.39
74792;SHT30;63319;46.046;17.802;2023-04-24T18:56:38;24.44;46.49
74792;SHT30;63319;46.046;17.802;2023-04-24T18:59:42;24.41;46.49
74792;SHT30;63319;46.046;17.802;2023-04-24T19:02:46;24.40;46.18
74792;SHT30;63319;46.046;17.802;2023-04-24T19:05:50;24.44;46.52
74792;SHT30;63319;46.046;17.802;2023-04-24T19:08:54;24.41;46.45
74792;SHT30;63319;46.046;17.802;2023-04-24T19:11:59;24.41;46.10
74792;SHT30;63319;46.046;17.802;2023-04-24T19:15:05;24.41;46.53